Relevés horaires Elsenborn (Belgique)


Relevés horaires à Elsenborn - Dimanche 21 Avr. 2019
Heure UTC1 Température [°C] Vent [km/h] Hum. [%] Pres.4 [hPa] Visi. [Km] Nébu. [octa] Préc.5 [mm] Cond.
2m. Res. Ros. Dir.2 Vit. Moy. Raf.3
23:00 4.6 4.6 0.8 NNO 1.9 -- 3.7 76 1017.2(-1.1/3h) 20 -- -- --
22:00 6.6 6.6 1.6 NNO 1.9 -- 3.7 70 1017.1(-0.7/3h) 20 -- -- --
21:00 8.3 8.3 1.7 NNO 1.9 -- 7.4 63 1017.1(-0.2/3h) 20 -- -- --
20:00 12.0 12.0 1.5 NNO 1.9 -- 3.7 49 1016.6(-0.1/3h) 20 -- -- --
19:00 14.1 14.1 0.9 NNO 1.9 -- 7.4 41 1016.2(-0.7/3h) 20 -- -- --
18:00 18.2 18.2 -- ENE 3.7 -- 13.0 -- 1015.1(-1.3/3h) 20 -- -- --
17:00 19.8 19.8 0.1 ENE 5.6 -- 11.1 27 1015(-1.6/3h) 20 -- -- --
16:00 20.7 20.7 -0.3 ESE 3.7 -- 11.1 24 1015.5(-1.7/3h) 20 -- -- --
15:00 21.3 21.3 0.6 ESE 3.7 -- 13.0 25 1015.7(-1.9/3h) 19 -- -- --
14:00 21.0 21.0 0.7 ENE 3.7 -- 11.1 26 1016.5(-2.0/3h) 19 -- -- --
13:00 20.4 20.4 -0.2 ESE 3.7 -- 13.0 25 1017.3(-2.0/3h) 20 -- -- --
12:00 20.1 20.1 1.1 E 5.6 -- 14.8 28 1018.2(-1.9/3h) 20 -- -- --
11:00 19.7 19.7 -0.2 E 7.4 -- 14.8 26 1019(-1.4/3h) 20 -- -- --
10:00 19.2 19.2 -0.1 E 5.6 -- 13.0 27 1019.7(-0.9/3h) 20 -- -- --
09:00 19.0 19.0 -1.2 E 7.4 -- 13.0 25 1020.5(-0.6/3h) 20 -- -- --
08:00 18.1 18.1 0.3 E 5.6 -- 9.3 30 1020.8(-0.6/3h) 19 -- -- --
07:00 13.1 13.1 5.5 NNO 1.9 -- 1.9 60 1022.2(-0.6/3h) 19 -- -- --
06:00 8.4 8.4 3.6 NNO 1.9 -- 3.7 72 1023.7(-1.0/3h) 19 -- -- --
05:00 2.0 2.0 0.6 NNO 0.0 -- 0.0 90 1025.5(-1.4/3h) 20 -- -- --
04:00 1.7 1.7 0.5 NNO 1.9 -- 1.9 92 1025.9(-1.5/3h) 15 -- -- --
03:00 2.7 2.7 1.1 NNO 1.9 -- 3.7 89 1026.2(-1.5/3h) 20 -- -- --
02:00 3.2 3.2 1.1 NNO 1.9 -- 1.9 86 1026.7(-1.3/3h) 20 -- -- --
01:00 4.0 4.0 1.3 NNO 1.9 -- 3.7 83 1026.9(-1.2/3h) 20 -- -- --
00:00 4.6 4.6 0.7 NNO 1.9 -- 7.4 76 1027.2(-0.9/3h) 20 -- -- --

1 Coordinated Universal Time. Actuellement il est 20:00 locale et 18:00 UTC.

2 Le vent souffle depuis la direction indiquée vers la direction oposée.

3 Les rafales max. sont disponible 40 min après l'heure du relevé.

4 Pour les stations d'altitude (plus de 600m) le géopotentiel du niveau le plus proche de la pression obligatoire est indiqué.

5 Les stations disposant d'un diffuseur peuvent indiquer "trace". Cela signifie que des précipitations ont touchés le sol mais que la quantité est inférieure à 0.1 mm.

Récapitulatif de la journée
Température [°C] Vent [km/h] Ensoleillement4 [h] Precipitations totale5 [mm] Pression [Hpa]
Min1 Max.2 Moy.3 Max. Min Max.
1.6 21.8 0 14.8 0 h 0 min 0 1015.0 1027.2

1 Température minimale relevée entre 18:00 UTC la veille et 18:00 UTC le jour donné.

2 Température maximale relevée entre 06:00 UTC le jour donné et 06:00 UTC le lendemain.

3 Vent moyen de la journée basé sur les relevés horaires.

4 Ensoleillement en heures relevé entre 06:00 UTC la veille et 06:00 UTC le jour donné.

5 Précipitations totales tombées entre 06:00 UTC la jour donné et 06:00 UTC le lendemain.

Graphiques horaires